METAR Data
IDs: Format: Raw Decoded Include TAF

Data at: 2234 UTC 02 Aug 2021

KVTI 022215Z AUTO 00000KT 10SM CLR 26/09 A3013 RMK AO2 T02590092